Vohburg — V2OW7 — position and weather

sailwx.info

Track history (hours):
 
Tides and Currents Weather Stations Pressure Air Temp Water Temp Dewpoint Dewpoint Depression Visibility Wind Speed Wind Dir Waves Ship Positions

Vohburg

Last reported at 2016-Feb-10 02:33 UTC. Time now 2016-Feb-10 02:46 UTC.
Position N 57°47' E 010°35'.

Length 140 m; draft 7.4 m.

Type: Ship (hazmat cat A). MMSI: 305773000.

Date/timePositionNaut miles runAvg speedWind from/ knotsBaromVisibWave heightAir tempDewpointWater temp
2016-Feb-10 02:33N 57°47' E 010°35'1212.3
2016-Feb-10 01:33N 57°36' E 010°45'1616.5
2016-Feb-10 00:33N 57°19' E 010°43'1616.2
2016-Feb-09 23:33N 57°03' E 010°48'10015.8
2016-Feb-09 17:11N 55°23' E 011°02'1117.2
2016-Feb-09 16:33N 55°13' E 011°06'1716.6
2016-Feb-09 15:33N 54°57' E 010°57'1515.2
2016-Feb-09 14:33N 54°42' E 010°55'1717.2
2016-Feb-09 13:34N 54°33' E 011°20'1717.1
2016-Feb-09 12:33N 54°15' E 011°20'12 1.7
2016-Feb-09 05:18N 54°06' E 011°07'912.4
2016-Feb-09 04:33N 54°12' E 011°19'1212.1
2016-Feb-09 03:33N 54°18' E 011°37'1312.6
2016-Feb-09 02:33N 54°24' E 011°56'1110.9
2016-Feb-09 01:33N 54°31' E 012°11'1211.6
2016-Feb-09 00:33N 54°40' E 012°24'3812.1
2016-Feb-08 21:27N 54°55' E 013°23'1112.2
2016-Feb-08 20:33N 54°59' E 013°41'1212.5
2016-Feb-08 19:33N 55°04' E 014°01'1211.8
2016-Feb-08 18:33N 55°12' E 014°15'1312.6
2016-Feb-08 17:33N 55°22' E 014°29'1313.0
2016-Feb-08 16:33N 55°32' E 014°43'1312.7
2016-Feb-08 15:33N 55°38' E 015°03'  
2016-Feb-06 11:26N 59°35' E 023°00'1314.3
2016-Feb-06 10:33N 59°38' E 023°24'1413.9
2016-Feb-06 09:33N 59°42' E 023°51'7113.7
2016-Feb-06 04:25N 59°59' E 026°07'1214.0
2016-Feb-06 03:34N 60°01' E 026°30'1514.1
2016-Feb-06 02:32N 59°60' E 026°59'1514.4
2016-Feb-06 01:30N 60°06' E 027°26'1314.0
2016-Feb-06 00:33N 60°11' E 027°50'1414.5
2016-Feb-05 23:33N 60°07' E 028°18'1313.4
2016-Feb-05 22:33N 60°03' E 028°44'30 2.5
2016-Feb-05 10:28N 60°00' E 029°43'0 0.0
2016-Feb-05 08:08N 60°00' E 029°43'14 3.7
2016-Feb-05 04:25N 60°02' E 029°16'1112.5
2016-Feb-05 03:33N 60°02' E 028°54'1313.3
2016-Feb-05 02:33N 60°03' E 028°28'1313.5
2016-Feb-05 01:33N 60°09' E 028°03'1313.0
2016-Feb-05 00:33N 60°08' E 027°37'1614.0
2016-Feb-04 23:23N 59°60' E 027°09'1113.4
2016-Feb-04 22:34N 59°59' E 026°47'89 5.2
2016-Feb-04 05:15N 59°39' E 023°54'1115.6
2016-Feb-04 04:33N 59°36' E 023°34'34615.7
2016-Feb-03 06:29N 55°42' E 015°38'1516.7
2016-Feb-03 05:34N 55°34' E 015°14'1716.7
2016-Feb-03 04:33N 55°26' E 014°48'1616.2
2016-Feb-03 03:33N 55°15' E 014°28'1616.3
2016-Feb-03 02:33N 55°03' E 014°09'1717.0
2016-Feb-03 01:33N 54°56' E 013°42'2617.0
2016-Feb-03 00:03N 54°48' E 012°60'817.3
2016-Feb-02 23:33N 54°45' E 012°46'1717.4
2016-Feb-02 22:34N 54°36' E 012°20'1616.2
2016-Feb-02 21:34N 54°24' E 012°02'1817.7
2016-Feb-02 20:34N 54°16' E 011°35'19 2.0
2016-Feb-02 11:08N 54°06' E 011°06'6 9.7
2016-Feb-02 10:33N 54°11' E 011°12'1010.0
2016-Feb-02 09:33N 54°19' E 011°22'8 8.2
2016-Feb-02 08:33N 54°27' E 011°25'9 9.0
2016-Feb-02 07:33N 54°34' E 011°14'1110.7
2016-Feb-02 06:33N 54°39' E 010°59'9 8.7
2016-Feb-02 05:33N 54°47' E 010°52'10 9.7
2016-Feb-02 04:33N 54°56' E 010°56'10 9.6
2016-Feb-02 03:34N 55°05' E 011°02'10 9.6
2016-Feb-02 02:33N 55°15' E 011°05'13110.0
2016-Feb-01 13:31N 57°25' E 010°43'1010.5
2016-Feb-01 12:33N 57°35' E 010°44'1010.4
2016-Feb-01 11:33N 57°46' E 010°45'8712.2
2016-Feb-01 04:22N 57°06' E 008°20'1316.1
2016-Feb-01 03:33N 56°56' E 008°06'17716.1
2016-Jan-31 16:33N 54°24' E 005°26'1616.0
2016-Jan-31 15:33N 54°10' E 005°12'1514.7
2016-Jan-31 14:33N 53°56' E 005°03'1514.6
2016-Jan-31 13:32N 53°42' E 004°55'3014.9
2016-Jan-31 11:32N 53°15' E 004°34'1515.7
2016-Jan-31 10:33N 53°01' E 004°23'1715.8
2016-Jan-31 09:28N 52°46' E 004°09'6515.4
2016-Jan-31 05:15N 51°50' E 003°17'1115.0
2016-Jan-31 04:33N 51°42' E 003°05'1515.2
2016-Jan-31 03:33N 51°31' E 002°49'  
Track history (hours):
 
Tides and Currents Weather Stations Pressure Air Temp Water Temp Dewpoint Dewpoint Depression Visibility Wind Speed Wind Dir Waves Ship Positions

Vohburg

Last reported at 2016-Feb-10 02:33 UTC. Time now 2016-Feb-10 02:46 UTC.
Position N 57°47' E 010°35'.

Length 140 m; draft 7.4 m.

Type: Ship (hazmat cat A). MMSI: 305773000.

Date/timePositionNaut miles runAvg speedWind from/ knotsBaromVisibWave heightAir tempDewpointWater temp
2016-Feb-10 02:33N 57°47' E 010°35'1212.3
2016-Feb-10 01:33N 57°36' E 010°45'1616.5
2016-Feb-10 00:33N 57°19' E 010°43'1616.2
2016-Feb-09 23:33N 57°03' E 010°48'10015.8
2016-Feb-09 17:11N 55°23' E 011°02'1117.2
2016-Feb-09 16:33N 55°13' E 011°06'1716.6
2016-Feb-09 15:33N 54°57' E 010°57'1515.2
2016-Feb-09 14:33N 54°42' E 010°55'1717.2
2016-Feb-09 13:34N 54°33' E 011°20'1717.1
2016-Feb-09 12:33N 54°15' E 011°20'12 1.7
2016-Feb-09 05:18N 54°06' E 011°07'912.4
2016-Feb-09 04:33N 54°12' E 011°19'1212.1
2016-Feb-09 03:33N 54°18' E 011°37'1312.6
2016-Feb-09 02:33N 54°24' E 011°56'1110.9
2016-Feb-09 01:33N 54°31' E 012°11'1211.6
2016-Feb-09 00:33N 54°40' E 012°24'3812.1
2016-Feb-08 21:27N 54°55' E 013°23'1112.2
2016-Feb-08 20:33N 54°59' E 013°41'1212.5
2016-Feb-08 19:33N 55°04' E 014°01'1211.8
2016-Feb-08 18:33N 55°12' E 014°15'1312.6
2016-Feb-08 17:33N 55°22' E 014°29'1313.0
2016-Feb-08 16:33N 55°32' E 014°43'1312.7
2016-Feb-08 15:33N 55°38' E 015°03'  
2016-Feb-06 11:26N 59°35' E 023°00'1314.3
2016-Feb-06 10:33N 59°38' E 023°24'1413.9
2016-Feb-06 09:33N 59°42' E 023°51'7113.7
2016-Feb-06 04:25N 59°59' E 026°07'1214.0
2016-Feb-06 03:34N 60°01' E 026°30'1514.1
2016-Feb-06 02:32N 59°60' E 026°59'1514.4
2016-Feb-06 01:30N 60°06' E 027°26'1314.0
2016-Feb-06 00:33N 60°11' E 027°50'1414.5
2016-Feb-05 23:33N 60°07' E 028°18'1313.4
2016-Feb-05 22:33N 60°03' E 028°44'30 2.5
2016-Feb-05 10:28N 60°00' E 029°43'0 0.0
2016-Feb-05 08:08N 60°00' E 029°43'14 3.7
2016-Feb-05 04:25N 60°02' E 029°16'1112.5
2016-Feb-05 03:33N 60°02' E 028°54'1313.3
2016-Feb-05 02:33N 60°03' E 028°28'1313.5
2016-Feb-05 01:33N 60°09' E 028°03'1313.0
2016-Feb-05 00:33N 60°08' E 027°37'1614.0
2016-Feb-04 23:23N 59°60' E 027°09'1113.4
2016-Feb-04 22:34N 59°59' E 026°47'89 5.2
2016-Feb-04 05:15N 59°39' E 023°54'1115.6
2016-Feb-04 04:33N 59°36' E 023°34'34615.7
2016-Feb-03 06:29N 55°42' E 015°38'1516.7
2016-Feb-03 05:34N 55°34' E 015°14'1716.7
2016-Feb-03 04:33N 55°26' E 014°48'1616.2
2016-Feb-03 03:33N 55°15' E 014°28'1616.3
2016-Feb-03 02:33N 55°03' E 014°09'1717.0
2016-Feb-03 01:33N 54°56' E 013°42'2617.0
2016-Feb-03 00:03N 54°48' E 012°60'817.3
2016-Feb-02 23:33N 54°45' E 012°46'1717.4
2016-Feb-02 22:34N 54°36' E 012°20'1616.2
2016-Feb-02 21:34N 54°24' E 012°02'1817.7
2016-Feb-02 20:34N 54°16' E 011°35'19 2.0
2016-Feb-02 11:08N 54°06' E 011°06'6 9.7
2016-Feb-02 10:33N 54°11' E 011°12'1010.0
2016-Feb-02 09:33N 54°19' E 011°22'8 8.2
2016-Feb-02 08:33N 54°27' E 011°25'9 9.0
2016-Feb-02 07:33N 54°34' E 011°14'1110.7
2016-Feb-02 06:33N 54°39' E 010°59'9 8.7
2016-Feb-02 05:33N 54°47' E 010°52'10 9.7
2016-Feb-02 04:33N 54°56' E 010°56'10 9.6
2016-Feb-02 03:34N 55°05' E 011°02'10 9.6
2016-Feb-02 02:33N 55°15' E 011°05'13110.0
2016-Feb-01 13:31N 57°25' E 010°43'1010.5
2016-Feb-01 12:33N 57°35' E 010°44'1010.4
2016-Feb-01 11:33N 57°46' E 010°45'8712.2
2016-Feb-01 04:22N 57°06' E 008°20'1316.1
2016-Feb-01 03:33N 56°56' E 008°06'17716.1
2016-Jan-31 16:33N 54°24' E 005°26'1616.0
2016-Jan-31 15:33N 54°10' E 005°12'1514.7
2016-Jan-31 14:33N 53°56' E 005°03'1514.6
2016-Jan-31 13:32N 53°42' E 004°55'3014.9
2016-Jan-31 11:32N 53°15' E 004°34'1515.7
2016-Jan-31 10:33N 53°01' E 004°23'1715.8
2016-Jan-31 09:28N 52°46' E 004°09'6515.4
2016-Jan-31 05:15N 51°50' E 003°17'1115.0
2016-Jan-31 04:33N 51°42' E 003°05'1515.2
2016-Jan-31 03:33N 51°31' E 002°49'  

Dump ship's entire track history